sensor_id;sensor_type;location;lat;lon;timestamp;P1;durP1;ratioP1;P2;durP2;ratioP2
3259;SDS011;68938;48.150;14.004;2023-08-12T00:01:46;8.40;;;7.73;;
3259;SDS011;68938;48.150;14.004;2023-08-12T00:04:14;8.37;;;7.60;;
3259;SDS011;68938;48.150;14.004;2023-08-12T00:06:42;8.50;;;7.90;;
3259;SDS011;68938;48.150;14.004;2023-08-12T00:09:11;9.10;;;8.30;;
3259;SDS011;68938;48.150;14.004;2023-08-12T00:11:38;8.97;;;8.17;;
3259;SDS011;68938;48.150;14.004;2023-08-12T00:14:07;9.43;;;8.63;;
3259;SDS011;68938;48.150;14.004;2023-08-12T00:16:35;9.77;;;8.90;;
3259;SDS011;68938;48.150;14.004;2023-08-12T00:19:04;8.77;;;7.97;;
3259;SDS011;68938;48.150;14.004;2023-08-12T00:21:32;9.67;;;8.83;;
3259;SDS011;68938;48.150;14.004;2023-08-12T00:24:02;9.30;;;8.40;;
3259;SDS011;68938;48.150;14.004;2023-08-12T00:26:30;9.73;;;7.93;;
3259;SDS011;68938;48.150;14.004;2023-08-12T00:28:57;8.90;;;8.10;;
3259;SDS011;68938;48.150;14.004;2023-08-12T00:31:24;9.70;;;9.00;;
3259;SDS011;68938;48.150;14.004;2023-08-12T00:33:52;9.10;;;8.40;;
3259;SDS011;68938;48.150;14.004;2023-08-12T00:36:19;8.97;;;8.13;;
3259;SDS011;68938;48.150;14.004;2023-08-12T00:38:48;9.50;;;8.70;;
3259;SDS011;68938;48.150;14.004;2023-08-12T00:41:15;9.63;;;8.93;;
3259;SDS011;68938;48.150;14.004;2023-08-12T00:43:43;9.00;;;8.23;;
3259;SDS011;68938;48.150;14.004;2023-08-12T00:46:11;9.07;;;8.07;;
3259;SDS011;68938;48.150;14.004;2023-08-12T00:48:39;9.30;;;8.50;;
3259;SDS011;68938;48.150;14.004;2023-08-12T00:51:09;8.67;;;8.00;;
3259;SDS011;68938;48.150;14.004;2023-08-12T00:53:40;8.20;;;7.60;;
3259;SDS011;68938;48.150;14.004;2023-08-12T00:56:07;9.17;;;8.37;;
3259;SDS011;68938;48.150;14.004;2023-08-12T00:58:37;8.30;;;7.47;;
3259;SDS011;68938;48.150;14.004;2023-08-12T01:01:05;8.47;;;7.87;;
3259;SDS011;68938;48.150;14.004;2023-08-12T01:03:33;9.00;;;8.23;;
3259;SDS011;68938;48.150;14.004;2023-08-12T01:06:01;8.93;;;8.33;;
3259;SDS011;68938;48.150;14.004;2023-08-12T01:08:30;9.17;;;8.50;;
3259;SDS011;68938;48.150;14.004;2023-08-12T01:11:06;8.30;;;7.63;;
3259;SDS011;68938;48.150;14.004;2023-08-12T01:16:18;8.57;;;7.97;;
3259;SDS011;68938;48.150;14.004;2023-08-12T01:18:48;8.83;;;8.03;;
3259;SDS011;68938;48.150;14.004;2023-08-12T01:21:18;8.47;;;7.77;;
3259;SDS011;68938;48.150;14.004;2023-08-12T01:23:52;7.93;;;7.33;;
3259;SDS011;68938;48.150;14.004;2023-08-12T01:26:20;8.27;;;7.47;;
3259;SDS011;68938;48.150;14.004;2023-08-12T01:28:48;8.57;;;7.97;;
3259;SDS011;68938;48.150;14.004;2023-08-12T01:31:18;8.50;;;7.70;;
3259;SDS011;68938;48.150;14.004;2023-08-12T01:37:32;7.33;;;6.83;;
3259;SDS011;68938;48.150;14.004;2023-08-12T01:40:02;8.80;;;7.37;;
3259;SDS011;68938;48.150;14.004;2023-08-12T01:42:32;8.93;;;8.23;;
3259;SDS011;68938;48.150;14.004;2023-08-12T01:45:05;8.53;;;7.90;;
3259;SDS011;68938;48.150;14.004;2023-08-12T01:47:32;8.40;;;7.70;;
3259;SDS011;68938;48.150;14.004;2023-08-12T01:50:03;7.63;;;7.03;;
3259;SDS011;68938;48.150;14.004;2023-08-12T01:52:31;8.10;;;7.50;;
3259;SDS011;68938;48.150;14.004;2023-08-12T01:54:59;9.13;;;8.43;;
3259;SDS011;68938;48.150;14.004;2023-08-12T01:57:27;8.03;;;7.47;;
3259;SDS011;68938;48.150;14.004;2023-08-12T01:59:55;8.40;;;7.80;;
3259;SDS011;68938;48.150;14.004;2023-08-12T02:02:22;8.07;;;7.37;;
3259;SDS011;68938;48.150;14.004;2023-08-12T02:04:49;9.70;;;8.70;;
3259;SDS011;68938;48.150;14.004;2023-08-12T02:07:18;9.00;;;8.30;;
3259;SDS011;68938;48.150;14.004;2023-08-12T02:09:47;9.23;;;8.40;;
3259;SDS011;68938;48.150;14.004;2023-08-12T02:12:14;8.50;;;7.80;;
3259;SDS011;68938;48.150;14.004;2023-08-12T02:14:41;7.50;;;6.80;;
3259;SDS011;68938;48.150;14.004;2023-08-12T02:17:11;8.57;;;7.87;;
3259;SDS011;68938;48.150;14.004;2023-08-12T02:19:38;8.53;;;7.73;;
3259;SDS011;68938;48.150;14.004;2023-08-12T02:22:05;8.50;;;7.63;;
3259;SDS011;68938;48.150;14.004;2023-08-12T02:24:36;8.27;;;7.67;;
3259;SDS011;68938;48.150;14.004;2023-08-12T02:27:06;8.20;;;7.60;;
3259;SDS011;68938;48.150;14.004;2023-08-12T02:29:33;8.73;;;8.10;;
3259;SDS011;68938;48.150;14.004;2023-08-12T02:32:01;8.30;;;7.70;;
3259;SDS011;68938;48.150;14.004;2023-08-12T02:34:30;7.73;;;7.23;;
3259;SDS011;68938;48.150;14.004;2023-08-12T02:36:58;8.30;;;7.60;;
3259;SDS011;68938;48.150;14.004;2023-08-12T02:39:26;8.57;;;7.77;;
3259;SDS011;68938;48.150;14.004;2023-08-12T02:41:55;7.50;;;6.90;;
3259;SDS011;68938;48.150;14.004;2023-08-12T02:44:22;7.80;;;7.30;;
3259;SDS011;68938;48.150;14.004;2023-08-12T02:46:52;8.83;;;7.50;;
3259;SDS011;68938;48.150;14.004;2023-08-12T02:49:19;8.37;;;7.57;;
3259;SDS011;68938;48.150;14.004;2023-08-12T02:51:49;9.43;;;8.63;;
3259;SDS011;68938;48.150;14.004;2023-08-12T02:54:18;11.30;;;9.27;;
3259;SDS011;68938;48.150;14.004;2023-08-12T02:56:48;8.93;;;8.33;;
3259;SDS011;68938;48.150;14.004;2023-08-12T02:59:17;9.60;;;8.17;;
3259;SDS011;68938;48.150;14.004;2023-08-12T03:01:45;8.07;;;7.23;;
3259;SDS011;68938;48.150;14.004;2023-08-12T03:04:15;7.57;;;7.00;;
3259;SDS011;68938;48.150;14.004;2023-08-12T03:06:42;8.07;;;7.40;;
3259;SDS011;68938;48.150;14.004;2023-08-12T03:09:09;8.67;;;8.00;;
3259;SDS011;68938;48.150;14.004;2023-08-12T03:11:37;8.20;;;7.50;;
3259;SDS011;68938;48.150;14.004;2023-08-12T03:14:05;8.50;;;7.23;;
3259;SDS011;68938;48.150;14.004;2023-08-12T03:16:36;8.20;;;7.50;;
3259;SDS011;68938;48.150;14.004;2023-08-12T03:19:03;7.00;;;6.50;;
3259;SDS011;68938;48.150;14.004;2023-08-12T03:21:32;7.23;;;6.73;;
3259;SDS011;68938;48.150;14.004;2023-08-12T03:24:03;6.60;;;6.20;;
3259;SDS011;68938;48.150;14.004;2023-08-12T03:26:35;7.70;;;7.10;;
3259;SDS011;68938;48.150;14.004;2023-08-12T03:29:02;7.47;;;6.80;;
3259;SDS011;68938;48.150;14.004;2023-08-12T03:31:31;8.00;;;7.47;;
3259;SDS011;68938;48.150;14.004;2023-08-12T03:33:58;7.47;;;6.97;;
3259;SDS011;68938;48.150;14.004;2023-08-12T03:36:28;7.50;;;6.77;;
3259;SDS011;68938;48.150;14.004;2023-08-12T03:38:55;6.60;;;6.20;;
3259;SDS011;68938;48.150;14.004;2023-08-12T03:41:22;7.23;;;6.73;;
3259;SDS011;68938;48.150;14.004;2023-08-12T03:43:49;9.07;;;7.43;;
3259;SDS011;68938;48.150;14.004;2023-08-12T03:46:17;8.30;;;7.50;;
3259;SDS011;68938;48.150;14.004;2023-08-12T03:48:46;8.47;;;6.87;;
3259;SDS011;68938;48.150;14.004;2023-08-12T03:51:16;7.60;;;7.00;;
3259;SDS011;68938;48.150;14.004;2023-08-12T03:53:43;7.40;;;6.80;;
3259;SDS011;68938;48.150;14.004;2023-08-12T03:56:13;6.07;;;5.60;;
3259;SDS011;68938;48.150;14.004;2023-08-12T03:58:42;7.60;;;6.97;;
3259;SDS011;68938;48.150;14.004;2023-08-12T04:01:12;7.10;;;6.40;;
3259;SDS011;68938;48.150;14.004;2023-08-12T04:03:42;7.17;;;6.50;;
3259;SDS011;68938;48.150;14.004;2023-08-12T04:06:12;7.47;;;6.90;;
3259;SDS011;68938;48.150;14.004;2023-08-12T04:08:39;6.83;;;6.33;;
3259;SDS011;68938;48.150;14.004;2023-08-12T04:11:08;6.73;;;6.33;;
3259;SDS011;68938;48.150;14.004;2023-08-12T04:13:36;7.97;;;7.37;;
3259;SDS011;68938;48.150;14.004;2023-08-12T04:16:06;7.07;;;6.57;;
3259;SDS011;68938;48.150;14.004;2023-08-12T04:18:35;8.23;;;7.47;;
3259;SDS011;68938;48.150;14.004;2023-08-12T04:21:03;8.27;;;7.67;;
3259;SDS011;68938;48.150;14.004;2023-08-12T04:23:30;7.17;;;6.67;;
3259;SDS011;68938;48.150;14.004;2023-08-12T04:25:59;7.40;;;6.90;;
3259;SDS011;68938;48.150;14.004;2023-08-12T04:28:29;7.60;;;7.17;;
3259;SDS011;68938;48.150;14.004;2023-08-12T04:30:56;8.07;;;7.53;;
3259;SDS011;68938;48.150;14.004;2023-08-12T04:33:26;8.30;;;7.50;;
3259;SDS011;68938;48.150;14.004;2023-08-12T04:35:55;7.87;;;7.27;;
3259;SDS011;68938;48.150;14.004;2023-08-12T04:38:22;8.83;;;8.13;;
3259;SDS011;68938;48.150;14.004;2023-08-12T04:40:49;10.20;;;9.30;;
3259;SDS011;68938;48.150;14.004;2023-08-12T04:43:18;10.07;;;9.00;;
3259;SDS011;68938;48.150;14.004;2023-08-12T04:45:45;8.20;;;7.60;;
3259;SDS011;68938;48.150;14.004;2023-08-12T04:48:13;8.43;;;7.73;;
3259;SDS011;68938;48.150;14.004;2023-08-12T04:50:42;9.43;;;8.53;;
3259;SDS011;68938;48.150;14.004;2023-08-12T04:53:11;8.80;;;8.20;;
3259;SDS011;68938;48.150;14.004;2023-08-12T04:55:40;8.30;;;7.70;;
3259;SDS011;68938;48.150;14.004;2023-08-12T04:58:12;8.80;;;8.00;;
3259;SDS011;68938;48.150;14.004;2023-08-12T05:00:40;8.80;;;8.17;;
3259;SDS011;68938;48.150;14.004;2023-08-12T05:03:09;10.63;;;9.73;;
3259;SDS011;68938;48.150;14.004;2023-08-12T05:05:37;9.93;;;9.23;;
3259;SDS011;68938;48.150;14.004;2023-08-12T05:08:03;9.97;;;9.13;;
3259;SDS011;68938;48.150;14.004;2023-08-12T05:10:31;10.57;;;9.77;;
3259;SDS011;68938;48.150;14.004;2023-08-12T05:12:58;9.60;;;8.90;;
3259;SDS011;68938;48.150;14.004;2023-08-12T05:15:26;9.70;;;8.80;;
3259;SDS011;68938;48.150;14.004;2023-08-12T05:17:55;11.17;;;10.37;;
3259;SDS011;68938;48.150;14.004;2023-08-12T05:20:23;10.83;;;9.93;;
3259;SDS011;68938;48.150;14.004;2023-08-12T05:22:50;11.33;;;10.43;;
3259;SDS011;68938;48.150;14.004;2023-08-12T05:25:20;10.97;;;10.07;;
3259;SDS011;68938;48.150;14.004;2023-08-12T05:27:50;12.27;;;11.17;;
3259;SDS011;68938;48.150;14.004;2023-08-12T05:30:19;12.50;;;11.50;;
3259;SDS011;68938;48.150;14.004;2023-08-12T05:32:46;10.80;;;9.93;;
3259;SDS011;68938;48.150;14.004;2023-08-12T05:35:16;12.07;;;11.00;;
3259;SDS011;68938;48.150;14.004;2023-08-12T05:37:44;10.07;;;9.33;;
3259;SDS011;68938;48.150;14.004;2023-08-12T05:40:11;10.80;;;9.90;;
3259;SDS011;68938;48.150;14.004;2023-08-12T05:42:40;9.70;;;8.80;;
3259;SDS011;68938;48.150;14.004;2023-08-12T05:45:07;10.63;;;9.77;;
3259;SDS011;68938;48.150;14.004;2023-08-12T05:47:37;10.17;;;9.20;;
3259;SDS011;68938;48.150;14.004;2023-08-12T05:50:05;10.80;;;9.90;;
3259;SDS011;68938;48.150;14.004;2023-08-12T05:52:34;11.00;;;10.20;;
3259;SDS011;68938;48.150;14.004;2023-08-12T05:55:03;10.50;;;9.40;;
3259;SDS011;68938;48.150;14.004;2023-08-12T05:57:31;10.50;;;9.70;;
3259;SDS011;68938;48.150;14.004;2023-08-12T06:00:02;10.27;;;9.53;;
3259;SDS011;68938;48.150;14.004;2023-08-12T06:02:32;10.40;;;9.60;;
3259;SDS011;68938;48.150;14.004;2023-08-12T06:05:00;11.57;;;10.50;;
3259;SDS011;68938;48.150;14.004;2023-08-12T06:07:28;9.80;;;9.00;;
3259;SDS011;68938;48.150;14.004;2023-08-12T06:09:58;9.83;;;9.03;;
3259;SDS011;68938;48.150;14.004;2023-08-12T06:12:29;9.93;;;8.97;;
3259;SDS011;68938;48.150;14.004;2023-08-12T06:14:56;9.63;;;9.03;;
3259;SDS011;68938;48.150;14.004;2023-08-12T06:17:24;10.40;;;9.70;;
3259;SDS011;68938;48.150;14.004;2023-08-12T06:19:53;9.80;;;9.10;;
3259;SDS011;68938;48.150;14.004;2023-08-12T06:22:22;10.57;;;9.70;;
3259;SDS011;68938;48.150;14.004;2023-08-12T06:24:49;10.20;;;9.30;;
3259;SDS011;68938;48.150;14.004;2023-08-12T06:27:18;10.50;;;9.60;;
3259;SDS011;68938;48.150;14.004;2023-08-12T06:29:45;9.63;;;8.87;;
3259;SDS011;68938;48.150;14.004;2023-08-12T06:32:14;9.53;;;8.83;;
3259;SDS011;68938;48.150;14.004;2023-08-12T06:34:41;9.40;;;8.60;;
3259;SDS011;68938;48.150;14.004;2023-08-12T06:37:08;8.40;;;7.70;;
3259;SDS011;68938;48.150;14.004;2023-08-12T06:39:36;8.60;;;8.00;;
3259;SDS011;68938;48.150;14.004;2023-08-12T06:42:03;8.93;;;8.13;;
3259;SDS011;68938;48.150;14.004;2023-08-12T06:44:32;10.10;;;8.43;;
3259;SDS011;68938;48.150;14.004;2023-08-12T06:46:59;8.97;;;8.17;;
3259;SDS011;68938;48.150;14.004;2023-08-12T06:49:28;8.13;;;7.43;;
3259;SDS011;68938;48.150;14.004;2023-08-12T06:51:56;9.00;;;7.20;;
3259;SDS011;68938;48.150;14.004;2023-08-12T06:54:25;7.20;;;6.80;;
3259;SDS011;68938;48.150;14.004;2023-08-12T06:56:52;6.63;;;6.13;;
3259;SDS011;68938;48.150;14.004;2023-08-12T06:59:20;7.10;;;6.60;;
3259;SDS011;68938;48.150;14.004;2023-08-12T07:01:47;7.20;;;6.53;;
3259;SDS011;68938;48.150;14.004;2023-08-12T07:04:16;6.60;;;6.00;;
3259;SDS011;68938;48.150;14.004;2023-08-12T07:06:44;6.37;;;5.87;;
3259;SDS011;68938;48.150;14.004;2023-08-12T07:09:14;6.50;;;6.10;;
3259;SDS011;68938;48.150;14.004;2023-08-12T07:11:41;7.60;;;7.00;;
3259;SDS011;68938;48.150;14.004;2023-08-12T07:14:08;7.67;;;6.97;;
3259;SDS011;68938;48.150;14.004;2023-08-12T07:16:35;6.90;;;6.50;;
3259;SDS011;68938;48.150;14.004;2023-08-12T07:19:05;7.87;;;7.07;;
3259;SDS011;68938;48.150;14.004;2023-08-12T07:21:32;7.10;;;6.60;;
3259;SDS011;68938;48.150;14.004;2023-08-12T07:24:03;7.20;;;6.67;;
3259;SDS011;68938;48.150;14.004;2023-08-12T07:26:31;6.73;;;6.13;;
3259;SDS011;68938;48.150;14.004;2023-08-12T07:29:00;6.77;;;5.60;;
3259;SDS011;68938;48.150;14.004;2023-08-12T07:31:27;6.10;;;5.63;;
3259;SDS011;68938;48.150;14.004;2023-08-12T07:33:55;5.63;;;5.30;;
3259;SDS011;68938;48.150;14.004;2023-08-12T07:36:22;5.37;;;5.07;;
3259;SDS011;68938;48.150;14.004;2023-08-12T07:38:52;6.10;;;5.70;;
3259;SDS011;68938;48.150;14.004;2023-08-12T07:41:20;5.63;;;5.13;;
3259;SDS011;68938;48.150;14.004;2023-08-12T07:43:51;7.17;;;5.90;;
3259;SDS011;68938;48.150;14.004;2023-08-12T07:46:19;5.60;;;5.10;;
3259;SDS011;68938;48.150;14.004;2023-08-12T07:48:46;6.87;;;6.27;;
3259;SDS011;68938;48.150;14.004;2023-08-12T07:51:13;5.90;;;5.50;;
3259;SDS011;68938;48.150;14.004;2023-08-12T07:53:43;5.07;;;4.77;;
3259;SDS011;68938;48.150;14.004;2023-08-12T07:56:10;5.83;;;5.30;;
3259;SDS011;68938;48.150;14.004;2023-08-12T07:58:39;5.63;;;5.33;;
3259;SDS011;68938;48.150;14.004;2023-08-12T08:01:08;7.53;;;5.13;;
3259;SDS011;68938;48.150;14.004;2023-08-12T08:03:36;6.03;;;5.53;;
3259;SDS011;68938;48.150;14.004;2023-08-12T08:06:04;6.63;;;6.10;;
3259;SDS011;68938;48.150;14.004;2023-08-12T08:08:31;5.57;;;5.23;;
3259;SDS011;68938;48.150;14.004;2023-08-12T08:10:58;6.20;;;5.23;;
3259;SDS011;68938;48.150;14.004;2023-08-12T08:13:26;6.43;;;5.93;;
3259;SDS011;68938;48.150;14.004;2023-08-12T08:15:54;5.63;;;5.13;;
3259;SDS011;68938;48.150;14.004;2023-08-12T08:18:22;4.80;;;4.50;;
3259;SDS011;68938;48.150;14.004;2023-08-12T08:20:51;4.57;;;4.27;;
3259;SDS011;68938;48.150;14.004;2023-08-12T08:23:21;4.90;;;4.47;;
3259;SDS011;68938;48.150;14.004;2023-08-12T08:25:48;4.70;;;4.30;;
3259;SDS011;68938;48.150;14.004;2023-08-12T08:28:16;5.10;;;4.70;;
3259;SDS011;68938;48.150;14.004;2023-08-12T08:30:43;5.00;;;4.60;;
3259;SDS011;68938;48.150;14.004;2023-08-12T08:33:11;4.20;;;4.00;;
3259;SDS011;68938;48.150;14.004;2023-08-12T08:35:41;5.40;;;4.40;;
3259;SDS011;68938;48.150;14.004;2023-08-12T08:38:09;3.90;;;3.60;;
3259;SDS011;68938;48.150;14.004;2023-08-12T08:40:37;3.77;;;3.47;;
3259;SDS011;68938;48.150;14.004;2023-08-12T08:43:07;3.63;;;3.43;;
3259;SDS011;68938;48.150;14.004;2023-08-12T08:45:35;4.00;;;3.80;;
3259;SDS011;68938;48.150;14.004;2023-08-12T08:48:07;5.13;;;4.70;;
3259;SDS011;68938;48.150;14.004;2023-08-12T08:50:38;3.80;;;3.50;;
3259;SDS011;68938;48.150;14.004;2023-08-12T08:53:07;3.27;;;3.17;;
3259;SDS011;68938;48.150;14.004;2023-08-12T08:55:35;3.67;;;3.47;;
3259;SDS011;68938;48.150;14.004;2023-08-12T08:58:04;3.10;;;2.80;;
3259;SDS011;68938;48.150;14.004;2023-08-12T09:00:32;2.80;;;2.70;;
3259;SDS011;68938;48.150;14.004;2023-08-12T09:03:00;2.67;;;2.57;;
3259;SDS011;68938;48.150;14.004;2023-08-12T09:05:29;3.97;;;3.23;;
3259;SDS011;68938;48.150;14.004;2023-08-12T09:08:02;3.10;;;3.00;;
3259;SDS011;68938;48.150;14.004;2023-08-12T09:10:34;3.30;;;3.10;;
3259;SDS011;68938;48.150;14.004;2023-08-12T09:13:04;3.30;;;3.10;;
3259;SDS011;68938;48.150;14.004;2023-08-12T09:15:32;3.73;;;3.30;;
3259;SDS011;68938;48.150;14.004;2023-08-12T09:18:04;3.47;;;3.20;;
3259;SDS011;68938;48.150;14.004;2023-08-12T09:20:34;3.13;;;2.93;;
3259;SDS011;68938;48.150;14.004;2023-08-12T09:23:02;3.00;;;2.80;;
3259;SDS011;68938;48.150;14.004;2023-08-12T09:25:30;3.10;;;3.00;;
3259;SDS011;68938;48.150;14.004;2023-08-12T09:28:01;3.27;;;3.10;;
3259;SDS011;68938;48.150;14.004;2023-08-12T09:30:29;3.33;;;3.03;;
3259;SDS011;68938;48.150;14.004;2023-08-12T09:33:00;2.90;;;2.57;;
3259;SDS011;68938;48.150;14.004;2023-08-12T09:35:34;2.80;;;2.70;;
3259;SDS011;68938;48.150;14.004;2023-08-12T09:38:09;2.70;;;2.60;;
3259;SDS011;68938;48.150;14.004;2023-08-12T09:40:39;2.60;;;2.50;;
3259;SDS011;68938;48.150;14.004;2023-08-12T09:43:08;2.70;;;2.60;;
3259;SDS011;68938;48.150;14.004;2023-08-12T09:45:38;2.90;;;2.70;;
3259;SDS011;68938;48.150;14.004;2023-08-12T09:48:07;2.70;;;2.60;;
3259;SDS011;68938;48.150;14.004;2023-08-12T09:50:38;3.13;;;2.87;;
3259;SDS011;68938;48.150;14.004;2023-08-12T09:53:06;3.00;;;2.80;;
3259;SDS011;68938;48.150;14.004;2023-08-12T09:55:33;3.00;;;2.80;;
3259;SDS011;68938;48.150;14.004;2023-08-12T09:58:02;2.33;;;2.23;;
3259;SDS011;68938;48.150;14.004;2023-08-12T10:00:34;2.67;;;2.50;;
3259;SDS011;68938;48.150;14.004;2023-08-12T10:03:02;2.80;;;2.70;;
3259;SDS011;68938;48.150;14.004;2023-08-12T10:05:33;3.27;;;3.07;;
3259;SDS011;68938;48.150;14.004;2023-08-12T10:08:01;2.80;;;2.60;;
3259;SDS011;68938;48.150;14.004;2023-08-12T10:10:30;2.60;;;2.50;;
3259;SDS011;68938;48.150;14.004;2023-08-12T10:13:02;2.80;;;2.70;;
3259;SDS011;68938;48.150;14.004;2023-08-12T10:15:30;3.03;;;2.83;;
3259;SDS011;68938;48.150;14.004;2023-08-12T10:17:57;4.17;;;3.20;;
3259;SDS011;68938;48.150;14.004;2023-08-12T10:20:26;3.03;;;2.90;;
3259;SDS011;68938;48.150;14.004;2023-08-12T10:22:56;2.67;;;2.57;;
3259;SDS011;68938;48.150;14.004;2023-08-12T10:25:27;2.70;;;2.60;;
3259;SDS011;68938;48.150;14.004;2023-08-12T10:28:00;2.70;;;2.50;;
3259;SDS011;68938;48.150;14.004;2023-08-12T10:30:28;2.60;;;2.40;;
3259;SDS011;68938;48.150;14.004;2023-08-12T10:32:57;2.90;;;2.70;;
3259;SDS011;68938;48.150;14.004;2023-08-12T10:35:45;3.27;;;3.00;;
3259;SDS011;68938;48.150;14.004;2023-08-12T10:38:17;2.73;;;2.57;;
3259;SDS011;68938;48.150;14.004;2023-08-12T10:40:51;3.37;;;3.07;;
3259;SDS011;68938;48.150;14.004;2023-08-12T10:43:19;3.50;;;3.17;;
3259;SDS011;68938;48.150;14.004;2023-08-12T10:45:47;3.00;;;2.80;;
3259;SDS011;68938;48.150;14.004;2023-08-12T10:48:24;2.50;;;2.40;;
3259;SDS011;68938;48.150;14.004;2023-08-12T10:50:54;3.10;;;2.90;;
3259;SDS011;68938;48.150;14.004;2023-08-12T10:53:26;3.73;;;2.47;;
3259;SDS011;68938;48.150;14.004;2023-08-12T10:56:03;3.33;;;2.73;;
3259;SDS011;68938;48.150;14.004;2023-08-12T10:58:35;3.20;;;3.00;;
3259;SDS011;68938;48.150;14.004;2023-08-12T11:01:19;3.30;;;3.13;;
3259;SDS011;68938;48.150;14.004;2023-08-12T11:03:50;3.30;;;3.10;;
3259;SDS011;68938;48.150;14.004;2023-08-12T11:06:18;3.00;;;2.80;;
3259;SDS011;68938;48.150;14.004;2023-08-12T11:08:49;3.40;;;3.13;;
3259;SDS011;68938;48.150;14.004;2023-08-12T11:11:21;2.43;;;2.33;;
3259;SDS011;68938;48.150;14.004;2023-08-12T11:13:58;7.93;;;3.27;;
3259;SDS011;68938;48.150;14.004;2023-08-12T11:16:34;2.67;;;2.47;;
3259;SDS011;68938;48.150;14.004;2023-08-12T11:19:04;3.17;;;2.93;;
3259;SDS011;68938;48.150;14.004;2023-08-12T11:21:33;2.80;;;2.70;;
3259;SDS011;68938;48.150;14.004;2023-08-12T11:24:05;2.80;;;2.70;;
3259;SDS011;68938;48.150;14.004;2023-08-12T11:26:33;3.33;;;3.13;;
3259;SDS011;68938;48.150;14.004;2023-08-12T11:29:07;3.30;;;3.00;;
3259;SDS011;68938;48.150;14.004;2023-08-12T11:31:37;2.80;;;2.70;;
3259;SDS011;68938;48.150;14.004;2023-08-12T11:34:05;3.37;;;3.00;;
3259;SDS011;68938;48.150;14.004;2023-08-12T11:36:33;3.80;;;2.60;;
3259;SDS011;68938;48.150;14.004;2023-08-12T11:39:00;2.90;;;2.70;;
3259;SDS011;68938;48.150;14.004;2023-08-12T11:41:30;2.70;;;2.60;;
3259;SDS011;68938;48.150;14.004;2023-08-12T11:44:02;2.43;;;2.33;;
3259;SDS011;68938;48.150;14.004;2023-08-12T11:46:32;2.50;;;2.40;;
3259;SDS011;68938;48.150;14.004;2023-08-12T11:49:00;2.80;;;2.60;;
3259;SDS011;68938;48.150;14.004;2023-08-12T11:51:27;3.17;;;2.97;;
3259;SDS011;68938;48.150;14.004;2023-08-12T11:53:55;2.67;;;2.57;;
3259;SDS011;68938;48.150;14.004;2023-08-12T11:56:23;2.43;;;2.30;;
3259;SDS011;68938;48.150;14.004;2023-08-12T11:58:53;2.50;;;2.40;;
3259;SDS011;68938;48.150;14.004;2023-08-12T12:01:21;2.40;;;2.30;;
3259;SDS011;68938;48.150;14.004;2023-08-12T12:03:52;2.97;;;2.77;;
3259;SDS011;68938;48.150;14.004;2023-08-12T12:06:32;3.27;;;2.40;;
3259;SDS011;68938;48.150;14.004;2023-08-12T12:09:06;3.17;;;2.60;;
3259;SDS011;68938;48.150;14.004;2023-08-12T12:11:35;4.83;;;2.83;;
3259;SDS011;68938;48.150;14.004;2023-08-12T12:14:04;2.83;;;2.70;;
3259;SDS011;68938;48.150;14.004;2023-08-12T12:16:41;2.90;;;2.80;;
3259;SDS011;68938;48.150;14.004;2023-08-12T12:19:15;2.73;;;2.63;;
3259;SDS011;68938;48.150;14.004;2023-08-12T12:21:46;2.53;;;2.43;;
3259;SDS011;68938;48.150;14.004;2023-08-12T12:24:19;2.60;;;2.27;;
3259;SDS011;68938;48.150;14.004;2023-08-12T12:26:47;2.43;;;2.17;;
3259;SDS011;68938;48.150;14.004;2023-08-12T12:29:15;2.57;;;2.47;;
3259;SDS011;68938;48.150;14.004;2023-08-12T12:31:44;2.77;;;2.67;;
3259;SDS011;68938;48.150;14.004;2023-08-12T12:34:13;2.30;;;2.10;;
3259;SDS011;68938;48.150;14.004;2023-08-12T12:36:43;2.77;;;2.57;;
3259;SDS011;68938;48.150;14.004;2023-08-12T12:39:12;3.43;;;3.17;;
3259;SDS011;68938;48.150;14.004;2023-08-12T12:41:41;2.90;;;2.70;;
3259;SDS011;68938;48.150;14.004;2023-08-12T12:44:10;2.50;;;2.20;;
3259;SDS011;68938;48.150;14.004;2023-08-12T12:46:39;2.30;;;2.20;;
3259;SDS011;68938;48.150;14.004;2023-08-12T12:49:10;3.13;;;2.93;;
3259;SDS011;68938;48.150;14.004;2023-08-12T12:51:37;2.80;;;2.60;;
3259;SDS011;68938;48.150;14.004;2023-08-12T12:54:04;2.50;;;2.40;;
3259;SDS011;68938;48.150;14.004;2023-08-12T12:56:31;2.60;;;2.50;;
3259;SDS011;68938;48.150;14.004;2023-08-12T12:59:00;2.30;;;2.20;;
3259;SDS011;68938;48.150;14.004;2023-08-12T13:01:28;3.00;;;2.80;;
3259;SDS011;68938;48.150;14.004;2023-08-12T13:03:57;2.60;;;2.50;;
3259;SDS011;68938;48.150;14.004;2023-08-12T13:06:24;2.63;;;2.50;;
3259;SDS011;68938;48.150;14.004;2023-08-12T13:08:53;2.90;;;2.00;;
3259;SDS011;68938;48.150;14.004;2023-08-12T13:11:21;2.60;;;2.50;;
3259;SDS011;68938;48.150;14.004;2023-08-12T13:13:50;3.27;;;2.77;;
3259;SDS011;68938;48.150;14.004;2023-08-12T13:16:18;2.33;;;2.23;;
3259;SDS011;68938;48.150;14.004;2023-08-12T13:18:47;2.37;;;2.27;;
3259;SDS011;68938;48.150;14.004;2023-08-12T13:21:15;3.20;;;2.57;;
3259;SDS011;68938;48.150;14.004;2023-08-12T13:23:47;2.50;;;2.27;;
3259;SDS011;68938;48.150;14.004;2023-08-12T13:26:14;4.10;;;2.50;;
3259;SDS011;68938;48.150;14.004;2023-08-12T13:28:43;2.50;;;2.30;;
3259;SDS011;68938;48.150;14.004;2023-08-12T13:31:10;2.53;;;2.43;;
3259;SDS011;68938;48.150;14.004;2023-08-12T13:33:39;2.20;;;2.10;;
3259;SDS011;68938;48.150;14.004;2023-08-12T13:36:06;2.30;;;2.10;;
3259;SDS011;68938;48.150;14.004;2023-08-12T13:38:36;2.30;;;2.20;;
3259;SDS011;68938;48.150;14.004;2023-08-12T13:41:03;2.23;;;2.13;;
3259;SDS011;68938;48.150;14.004;2023-08-12T13:43:30;3.20;;;2.30;;
3259;SDS011;68938;48.150;14.004;2023-08-12T13:46:00;2.40;;;2.20;;
3259;SDS011;68938;48.150;14.004;2023-08-12T13:48:28;3.03;;;1.73;;
3259;SDS011;68938;48.150;14.004;2023-08-12T13:50:56;2.30;;;2.20;;
3259;SDS011;68938;48.150;14.004;2023-08-12T13:53:26;2.50;;;2.27;;
3259;SDS011;68938;48.150;14.004;2023-08-12T13:55:54;2.23;;;2.10;;
3259;SDS011;68938;48.150;14.004;2023-08-12T13:58:22;2.20;;;2.10;;
3259;SDS011;68938;48.150;14.004;2023-08-12T14:00:49;2.47;;;2.37;;
3259;SDS011;68938;48.150;14.004;2023-08-12T14:03:16;2.63;;;2.20;;
3259;SDS011;68938;48.150;14.004;2023-08-12T14:05:43;2.67;;;2.57;;
3259;SDS011;68938;48.150;14.004;2023-08-12T14:08:11;2.23;;;2.13;;
3259;SDS011;68938;48.150;14.004;2023-08-12T14:10:38;2.10;;;2.00;;
3259;SDS011;68938;48.150;14.004;2023-08-12T14:13:06;3.23;;;2.07;;
3259;SDS011;68938;48.150;14.004;2023-08-12T14:15:34;2.00;;;1.90;;
3259;SDS011;68938;48.150;14.004;2023-08-12T14:18:04;2.30;;;2.20;;
3259;SDS011;68938;48.150;14.004;2023-08-12T14:20:31;2.20;;;2.10;;
3259;SDS011;68938;48.150;14.004;2023-08-12T14:22:58;4.00;;;2.03;;
3259;SDS011;68938;48.150;14.004;2023-08-12T14:25:25;2.10;;;2.00;;
3259;SDS011;68938;48.150;14.004;2023-08-12T14:27:52;2.53;;;2.20;;
3259;SDS011;68938;48.150;14.004;2023-08-12T14:30:19;2.13;;;2.10;;
3259;SDS011;68938;48.150;14.004;2023-08-12T14:32:51;1.97;;;1.87;;
3259;SDS011;68938;48.150;14.004;2023-08-12T14:35:19;3.03;;;2.00;;
3259;SDS011;68938;48.150;14.004;2023-08-12T14:37:47;2.10;;;2.00;;
3259;SDS011;68938;48.150;14.004;2023-08-12T14:40:15;2.10;;;2.00;;
3259;SDS011;68938;48.150;14.004;2023-08-12T14:42:43;2.00;;;1.90;;
3259;SDS011;68938;48.150;14.004;2023-08-12T14:45:10;1.83;;;1.73;;
3259;SDS011;68938;48.150;14.004;2023-08-12T14:47:39;2.50;;;2.30;;
3259;SDS011;68938;48.150;14.004;2023-08-12T14:50:08;1.93;;;1.83;;
3259;SDS011;68938;48.150;14.004;2023-08-12T14:52:36;1.90;;;1.80;;
3259;SDS011;68938;48.150;14.004;2023-08-12T14:55:04;2.20;;;2.00;;
3259;SDS011;68938;48.150;14.004;2023-08-12T14:57:33;3.40;;;2.40;;
3259;SDS011;68938;48.150;14.004;2023-08-12T15:00:03;2.00;;;1.90;;
3259;SDS011;68938;48.150;14.004;2023-08-12T15:02:30;2.40;;;2.30;;